createdAt,value
2019-06-10T00:00:53.690Z,85.30
2019-06-10T00:03:22.113Z,85.70
2019-06-10T00:06:11.562Z,85.70
2019-06-10T00:08:41.218Z,85.80
2019-06-10T00:11:11.678Z,86.10
2019-06-10T00:13:41.453Z,86.30
2019-06-10T00:16:11.463Z,86.80
2019-06-10T00:18:42.914Z,87.00
2019-06-10T00:21:11.187Z,87.20
2019-06-10T00:23:41.230Z,89.60
2019-06-10T00:26:12.416Z,88.00
2019-06-10T00:28:40.662Z,88.20
2019-06-10T00:31:11.296Z,88.00
2019-06-10T00:33:41.359Z,88.80
2019-06-10T00:36:13.255Z,89.80
2019-06-10T00:38:41.183Z,90.30
2019-06-10T00:41:13.678Z,90.90
2019-06-10T00:43:41.169Z,90.30
2019-06-10T00:46:13.073Z,90.50
2019-06-10T00:48:41.009Z,90.80
2019-06-10T00:51:12.957Z,90.10
2019-06-10T00:53:42.133Z,90.20
2019-06-10T00:56:12.832Z,90.30
2019-06-10T00:58:40.843Z,90.70
2019-06-10T01:01:13.967Z,91.10
2019-06-10T01:03:41.573Z,91.60
2019-06-10T01:06:14.630Z,91.50
2019-06-10T01:08:40.594Z,91.70
2019-06-10T01:11:12.570Z,92.20
2019-06-10T01:13:41.256Z,91.70
2019-06-10T01:16:28.717Z,91.90
2019-06-10T01:18:57.150Z,92.10
2019-06-10T01:21:25.597Z,91.70
2019-06-10T01:23:54.065Z,91.50
2019-06-10T01:26:22.550Z,91.40
2019-06-10T01:28:51.620Z,91.70
2019-06-10T01:31:23.915Z,91.60
2019-06-10T01:33:51.383Z,92.10
2019-06-10T01:36:21.028Z,92.80
2019-06-10T01:38:51.141Z,92.50
2019-06-10T01:41:21.468Z,92.50
2019-06-10T01:43:51.285Z,92.30
2019-06-10T01:46:21.145Z,92.70
2019-06-10T01:48:52.154Z,93.20
2019-06-10T01:51:21.347Z,93.60
2019-06-10T01:53:51.235Z,93.10
2019-06-10T01:56:21.442Z,92.90
2019-06-10T01:58:51.405Z,93.90
2019-06-10T02:01:30.523Z,94.10
2019-06-10T02:04:00.764Z,93.80
2019-06-10T02:06:28.586Z,93.60
2019-06-10T02:09:05.868Z,93.50
2019-06-10T02:11:35.721Z,94.40
2019-06-10T02:14:06.039Z,93.80
2019-06-10T02:16:34.686Z,93.70
2019-06-10T02:19:04.199Z,93.80
2019-06-10T02:21:32.786Z,94.00
2019-06-10T02:24:01.185Z,94.80
2019-06-10T02:26:30.901Z,94.50
2019-06-10T02:29:00.668Z,94.50
2019-06-10T02:31:36.967Z,95.10
2019-06-10T02:34:02.252Z,95.20
2019-06-10T02:36:35.507Z,95.40
2019-06-10T02:38:59.857Z,95.30
2019-06-10T02:41:32.010Z,95.30
2019-06-10T02:43:58.697Z,95.60
2019-06-10T02:46:31.210Z,95.50
2019-06-10T02:49:13.599Z,95.60
2019-06-10T02:51:30.789Z,95.20
2019-06-10T02:53:57.754Z,95.10
2019-06-10T02:56:30.725Z,95.10
2019-06-10T02:58:56.485Z,95.80
2019-06-10T03:01:30.642Z,95.50
2019-06-10T03:03:55.450Z,95.80
2019-06-10T03:06:31.811Z,96.00
2019-06-10T03:08:55.058Z,96.20
2019-06-10T03:11:28.139Z,96.20
2019-06-10T03:13:53.806Z,96.00
2019-06-10T03:16:29.730Z,96.50
2019-06-10T03:18:58.482Z,96.60
2019-06-10T03:21:26.881Z,96.10
2019-06-10T03:23:55.322Z,95.90
2019-06-10T03:26:25.390Z,96.60
2019-06-10T03:28:55.248Z,96.40
2019-06-10T03:31:30.952Z,96.80
2019-06-10T03:33:54.526Z,97.20
2019-06-10T03:36:25.759Z,97.50
2019-06-10T03:38:53.898Z,97.50
2019-06-10T03:41:23.728Z,97.20
2019-06-10T03:43:53.092Z,97.00
2019-06-10T03:46:23.932Z,97.20
2019-06-10T03:48:52.629Z,96.90
2019-06-10T03:51:23.610Z,96.60
2019-06-10T03:53:53.149Z,96.30
2019-06-10T03:56:23.228Z,96.70
2019-06-10T03:58:52.126Z,96.80
2019-06-10T04:01:24.376Z,96.90
2019-06-10T04:03:52.824Z,96.30
2019-06-10T04:06:22.138Z,96.30
2019-06-10T04:08:52.206Z,96.30
2019-06-10T04:11:24.029Z,96.30
2019-06-10T04:13:53.345Z,96.40
2019-06-10T04:16:22.652Z,96.80
2019-06-10T04:18:53.389Z,96.50
2019-06-10T04:21:22.743Z,96.70
2019-06-10T04:23:52.844Z,96.30
2019-06-10T04:26:24.511Z,96.00
2019-06-10T04:28:53.052Z,96.20
2019-06-10T04:31:23.732Z,96.10
2019-06-10T04:33:52.377Z,95.90
2019-06-10T04:36:24.520Z,95.80
2019-06-10T04:38:52.675Z,96.10
2019-06-10T04:41:24.338Z,96.30
2019-06-10T04:43:53.166Z,96.50
2019-06-10T04:46:23.667Z,96.30
2019-06-10T04:48:53.190Z,96.10
2019-06-10T04:51:23.879Z,96.30
2019-06-10T04:53:52.630Z,96.90
2019-06-10T04:56:24.095Z,96.50
2019-06-10T04:58:52.568Z,96.30
2019-06-10T05:01:24.089Z,96.20
2019-06-10T05:03:52.715Z,95.90
2019-06-10T05:06:23.861Z,96.10
2019-06-10T05:08:53.608Z,96.20
2019-06-10T05:11:23.733Z,95.90
2019-06-10T05:13:53.232Z,95.70
2019-06-10T05:16:25.337Z,95.40
2019-06-10T05:18:54.743Z,95.40
2019-06-10T05:21:25.070Z,95.40
2019-06-10T05:23:52.446Z,95.40
2019-06-10T05:26:25.080Z,95.30
2019-06-10T05:28:52.410Z,95.50
2019-06-10T05:31:22.497Z,95.40
2019-06-10T05:33:53.014Z,95.20
2019-06-10T05:36:25.695Z,95.40
2019-06-10T05:38:52.583Z,95.40
2019-06-10T05:41:24.083Z,95.40
2019-06-10T05:43:52.288Z,95.20
2019-06-10T05:46:23.638Z,95.00
2019-06-10T05:48:52.574Z,95.40
2019-06-10T05:51:23.195Z,95.00
2019-06-10T05:53:52.824Z,94.60
2019-06-10T05:56:22.384Z,94.80
2019-06-10T05:58:52.455Z,95.10
2019-06-10T06:01:22.922Z,95.20
2019-06-10T06:03:53.085Z,95.10
2019-06-10T06:06:22.925Z,94.50
2019-06-10T06:08:53.372Z,93.60
2019-06-10T06:11:25.189Z,93.80
2019-06-10T06:13:52.468Z,94.40
2019-06-10T06:16:23.043Z,94.60
2019-06-10T06:18:52.669Z,94.50
2019-06-10T06:21:29.111Z,94.20
2019-06-10T06:23:52.815Z,93.40
2019-06-10T06:26:23.564Z,93.00
2019-06-10T06:28:53.537Z,93.00
2019-06-10T06:31:23.239Z,92.60
2019-06-10T06:33:52.759Z,92.40
2019-06-10T06:36:22.588Z,92.80
2019-06-10T06:38:53.084Z,92.20
2019-06-10T06:41:22.596Z,92.20
2019-06-10T06:43:53.076Z,92.10
2019-06-10T06:46:23.449Z,92.20
2019-06-10T06:48:53.230Z,92.60
2019-06-10T06:51:36.521Z,92.50
2019-06-10T06:53:56.083Z,92.10
2019-06-10T06:56:23.162Z,92.60
2019-06-10T06:58:52.516Z,92.90
2019-06-10T07:01:25.518Z,93.90
2019-06-10T07:03:53.621Z,93.80
2019-06-10T07:06:23.394Z,93.70
2019-06-10T07:09:04.138Z,94.50
2019-06-10T07:11:25.192Z,94.60
2019-06-10T07:13:55.382Z,94.60
2019-06-10T07:16:23.835Z,94.90
2019-06-10T07:18:53.971Z,94.70
2019-06-10T07:21:22.890Z,94.70
2019-06-10T07:23:52.803Z,94.40
2019-06-10T07:26:22.376Z,94.00
2019-06-10T07:28:53.390Z,93.40
2019-06-10T07:31:27.049Z,92.60
2019-06-10T07:33:52.570Z,92.40
2019-06-10T07:36:23.556Z,92.90
2019-06-10T07:38:53.898Z,92.60
2019-06-10T07:41:23.201Z,93.40
2019-06-10T07:43:52.848Z,92.10
2019-06-10T07:46:22.994Z,91.70
2019-06-10T07:48:56.029Z,91.10
2019-06-10T07:51:22.634Z,91.20
2019-06-10T07:53:52.617Z,91.30
2019-06-10T07:56:23.324Z,91.00
2019-06-10T07:58:52.781Z,90.80
2019-06-10T08:01:22.963Z,90.60
2019-06-10T08:03:52.625Z,89.70
2019-06-10T08:06:22.892Z,89.80
2019-06-10T08:08:53.120Z,89.60
2019-06-10T08:11:22.913Z,89.60
2019-06-10T08:13:54.051Z,89.50
2019-06-10T08:16:23.666Z,89.70
2019-06-10T08:19:20.031Z,86.70
2019-06-10T08:21:22.995Z,86.30
2019-06-10T08:23:54.213Z,83.40
2019-06-10T08:26:23.276Z,83.50
2019-06-10T08:28:53.121Z,84.10
2019-06-10T08:31:22.614Z,84.00
2019-06-10T08:33:53.403Z,80.10
2019-06-10T08:36:22.428Z,77.50
2019-06-10T08:38:52.708Z,78.70
2019-06-10T08:41:23.118Z,76.40
2019-06-10T08:43:52.920Z,75.10
2019-06-10T08:46:22.531Z,73.10
2019-06-10T08:48:52.570Z,73.60
2019-06-10T08:51:23.838Z,72.10
2019-06-10T08:53:55.511Z,75.50
2019-06-10T08:56:23.221Z,76.90
2019-06-10T08:58:53.838Z,72.20
2019-06-10T09:01:22.350Z,67.50
2019-06-10T09:03:53.502Z,66.30
2019-06-10T09:06:23.056Z,67.10
2019-06-10T09:08:54.274Z,66.30
2019-06-10T09:11:23.767Z,69.90
2019-06-10T09:13:53.308Z,69.60
2019-06-10T09:16:22.842Z,68.20
2019-06-10T09:18:54.957Z,70.50
2019-06-10T09:21:22.317Z,71.00
2019-06-10T09:23:59.084Z,69.70
2019-06-10T09:26:22.927Z,69.80
2019-06-10T09:28:56.209Z,69.80
2019-06-10T09:31:23.853Z,66.20
2019-06-10T09:33:56.639Z,65.50
2019-06-10T09:36:23.517Z,64.60
2019-06-10T09:38:55.553Z,60.60
2019-06-10T09:41:36.023Z,62.30
2019-06-10T09:43:57.019Z,59.70
2019-06-10T09:46:27.277Z,59.10
2019-06-10T09:48:57.560Z,57.50
2019-06-10T09:51:26.424Z,58.40
2019-06-10T09:54:03.637Z,58.70
2019-06-10T09:56:25.281Z,57.90
2019-06-10T09:58:55.408Z,59.90
2019-06-10T10:01:24.715Z,59.60
2019-06-10T10:03:59.365Z,57.10
2019-06-10T10:06:24.300Z,56.10
2019-06-10T10:08:58.041Z,56.50
2019-06-10T10:11:28.469Z,57.10
2019-06-10T10:13:57.156Z,57.70
2019-06-10T10:16:25.560Z,58.10
2019-06-10T10:19:00.286Z,57.20
2019-06-10T10:21:24.375Z,59.40
2019-06-10T10:24:06.580Z,63.40
2019-06-10T10:26:22.923Z,61.80
2019-06-10T10:28:53.256Z,59.20
2019-06-10T10:31:23.279Z,58.20
2019-06-10T10:33:52.678Z,59.80
2019-06-10T10:36:22.618Z,57.10
2019-06-10T10:38:53.579Z,56.30
2019-06-10T10:41:23.996Z,54.00
2019-06-10T10:43:58.128Z,52.90
2019-06-10T10:46:25.034Z,51.70
2019-06-10T10:48:56.333Z,50.90
2019-06-10T10:51:23.726Z,52.20
2019-06-10T10:54:20.733Z,52.30
2019-06-10T10:56:33.364Z,51.90
2019-06-10T10:59:02.138Z,52.10
2019-06-10T11:01:33.146Z,52.80
2019-06-10T11:04:03.045Z,55.60
2019-06-10T11:06:32.287Z,56.10
2019-06-10T11:09:00.913Z,57.40
2019-06-10T11:11:33.131Z,55.80
2019-06-10T11:14:03.617Z,55.90
2019-06-10T11:16:33.038Z,54.50
2019-06-10T11:19:02.562Z,52.50
2019-06-10T11:21:33.057Z,53.20
2019-06-10T11:24:04.514Z,53.50
2019-06-10T11:26:32.836Z,56.40
2019-06-10T11:29:02.918Z,52.30
2019-06-10T11:31:32.817Z,53.80
2019-06-10T11:34:03.149Z,54.30
2019-06-10T11:36:31.744Z,53.60
2019-06-10T11:39:02.662Z,52.20
2019-06-10T11:41:32.303Z,52.40
2019-06-10T11:44:00.427Z,52.20
2019-06-10T11:46:28.869Z,51.00
2019-06-10T11:48:58.984Z,51.00
2019-06-10T11:51:27.412Z,50.90
2019-06-10T11:54:16.135Z,48.40
2019-06-10T11:56:46.077Z,48.90
2019-06-10T11:59:14.492Z,48.90
2019-06-10T12:01:42.932Z,49.90
2019-06-10T12:04:12.897Z,47.90
2019-06-10T12:06:42.585Z,47.40
2019-06-10T12:09:13.706Z,46.90
2019-06-10T12:11:43.702Z,47.00
2019-06-10T12:14:12.828Z,46.80
2019-06-10T12:19:12.690Z,47.00
2019-06-10T12:21:43.406Z,43.80
2019-06-10T12:24:12.709Z,43.60
2019-06-10T12:26:43.432Z,43.20
2019-06-10T12:29:12.407Z,43.70
2019-06-10T12:31:42.782Z,44.70
2019-06-10T12:34:12.506Z,46.00
2019-06-10T12:36:41.100Z,49.70
2019-06-10T12:39:11.205Z,50.20
2019-06-10T12:41:42.701Z,53.70
2019-06-10T12:44:12.333Z,54.50
2019-06-10T12:46:42.603Z,55.00
2019-06-10T12:49:12.809Z,57.10
2019-06-10T12:51:40.793Z,56.20
2019-06-10T12:54:09.214Z,56.40
2019-06-10T12:56:37.647Z,55.30
2019-06-10T12:59:09.810Z,55.60
2019-06-10T13:01:37.267Z,58.30
2019-06-10T13:04:08.016Z,58.40
2019-06-10T13:06:37.442Z,59.40
2019-06-10T13:09:08.067Z,64.30
2019-06-10T13:11:36.596Z,66.30
2019-06-10T13:14:06.744Z,61.30
2019-06-10T13:16:35.314Z,59.60
2019-06-10T13:19:06.152Z,60.40
2019-06-10T13:21:33.938Z,61.80
2019-06-10T13:24:05.476Z,61.40
2019-06-10T13:26:36.031Z,61.30
2019-06-10T13:29:08.001Z,62.40
2019-06-10T13:31:35.034Z,61.80
2019-06-10T13:34:09.107Z,61.00
2019-06-10T13:36:36.931Z,60.70
2019-06-10T13:39:10.141Z,62.40
2019-06-10T13:41:37.996Z,67.10
2019-06-10T13:44:06.498Z,68.20
2019-06-10T13:46:35.051Z,66.80
2019-06-10T13:49:06.834Z,67.70
2019-06-10T13:51:35.601Z,65.20
2019-06-10T13:54:06.681Z,67.10
2019-06-10T13:56:46.383Z,70.00
2019-06-10T13:59:07.519Z,70.50
2019-06-10T14:01:35.106Z,69.10
2019-06-10T14:04:13.777Z,69.00
2019-06-10T14:06:45.960Z,70.40
2019-06-10T14:09:08.035Z,72.00
2019-06-10T14:11:35.078Z,72.90
2019-06-10T14:14:03.886Z,73.10
2019-06-10T14:16:33.153Z,74.90
2019-06-10T14:19:05.803Z,76.50
2019-06-10T14:21:33.163Z,76.80
2019-06-10T14:24:02.090Z,77.10
2019-06-10T14:26:39.864Z,74.40
2019-06-10T14:29:02.980Z,73.50
2019-06-10T14:31:40.572Z,72.80
2019-06-10T14:34:03.746Z,74.40
2019-06-10T14:36:32.513Z,73.60
2019-06-10T14:39:01.243Z,73.00
2019-06-10T14:41:32.541Z,72.00
2019-06-10T14:43:59.950Z,74.20
2019-06-10T14:46:29.479Z,74.00
2019-06-10T14:48:57.884Z,76.00
2019-06-10T14:51:26.369Z,76.80
2019-06-10T14:53:54.842Z,78.20
2019-06-10T14:56:23.634Z,78.60
2019-06-10T14:58:53.006Z,84.10
2019-06-10T15:01:25.621Z,90.40
2019-06-10T15:03:52.383Z,92.80
2019-06-10T15:06:22.690Z,93.70
2019-06-10T15:08:53.168Z,95.40
2019-06-10T15:11:23.300Z,96.00
2019-06-10T15:13:53.579Z,96.40
2019-06-10T15:16:23.765Z,96.50
2019-06-10T15:18:52.545Z,97.90
2019-06-10T15:21:23.430Z,98.40
2019-06-10T15:23:52.347Z,98.90
2019-06-10T15:26:20.890Z,98.30
2019-06-10T15:28:49.351Z,99.10
2019-06-10T15:31:18.335Z,99.10
2019-06-10T15:33:48.100Z,98.90
2019-06-10T15:36:17.466Z,99.10
2019-06-10T15:38:46.003Z,99.00
2019-06-10T15:41:17.892Z,98.40
2019-06-10T15:43:44.670Z,98.70
2019-06-10T15:46:15.783Z,98.70
2019-06-10T15:48:43.441Z,98.50
2019-06-10T15:51:15.338Z,97.70
2019-06-10T15:53:43.085Z,96.80
2019-06-10T15:56:23.853Z,96.60
2019-06-10T15:58:42.904Z,95.60
2019-06-10T16:01:14.561Z,95.30
2019-06-10T16:03:44.943Z,94.20
2019-06-10T16:06:13.821Z,94.10
2019-06-10T16:08:45.707Z,93.70
2019-06-10T16:11:24.825Z,93.10
2019-06-10T16:13:50.343Z,92.00
2019-06-10T16:16:23.415Z,92.50
2019-06-10T16:18:52.798Z,92.60
2019-06-10T16:21:23.724Z,93.00
2019-06-10T16:23:53.343Z,93.30
2019-06-10T16:26:25.270Z,93.40
2019-06-10T16:28:52.278Z,93.90
2019-06-10T16:31:24.782Z,94.40
2019-06-10T16:33:52.718Z,94.90
2019-06-10T16:36:24.403Z,95.60
2019-06-10T16:38:52.814Z,96.60
2019-06-10T16:41:29.004Z,96.90
2019-06-10T16:43:57.554Z,96.80
2019-06-10T16:46:26.944Z,96.90
2019-06-10T16:48:58.706Z,96.80
2019-06-10T16:51:26.410Z,96.90
2019-06-10T16:53:54.849Z,97.10
2019-06-10T16:56:26.447Z,97.20
2019-06-10T16:58:54.242Z,92.40
2019-06-10T17:01:24.925Z,92.00
2019-06-10T17:03:52.866Z,90.60
2019-06-10T17:06:22.408Z,91.00
2019-06-10T17:08:52.238Z,91.60
2019-06-10T17:11:23.650Z,91.20
2019-06-10T17:13:52.651Z,90.20
2019-06-10T17:16:23.295Z,90.60
2019-06-10T17:18:53.623Z,90.40
2019-06-10T17:21:24.714Z,89.00
2019-06-10T17:23:52.484Z,89.80
2019-06-10T17:26:27.240Z,87.90
2019-06-10T17:28:52.129Z,89.70
2019-06-10T17:31:25.788Z,88.40
2019-06-10T17:33:53.127Z,90.00
2019-06-10T17:36:25.725Z,90.10
2019-06-10T17:38:52.328Z,89.80
2019-06-10T17:41:25.474Z,89.30
2019-06-10T17:43:52.122Z,90.50
2019-06-10T17:46:21.777Z,89.80
2019-06-10T17:48:52.131Z,90.90
2019-06-10T17:51:22.943Z,90.70
2019-06-10T17:53:52.986Z,90.70
2019-06-10T17:56:24.253Z,90.70
2019-06-10T17:58:57.463Z,90.90
2019-06-10T18:01:22.523Z,91.10
2019-06-10T18:03:53.128Z,91.20
2019-06-10T18:06:25.437Z,91.20
2019-06-10T18:08:52.677Z,92.00
2019-06-10T18:11:24.337Z,92.60
2019-06-10T18:13:52.605Z,93.00
2019-06-10T18:16:23.221Z,93.90
2019-06-10T18:18:52.478Z,94.60
2019-06-10T18:21:22.393Z,94.80
2019-06-10T18:23:52.888Z,95.00
2019-06-10T18:26:23.086Z,95.20
2019-06-10T18:29:04.324Z,95.20
2019-06-10T18:31:23.360Z,95.40
2019-06-10T18:33:53.054Z,95.50
2019-06-10T18:36:24.314Z,95.70
2019-06-10T18:38:52.668Z,95.70
2019-06-10T18:41:22.323Z,95.70
2019-06-10T18:43:51.062Z,95.60
2019-06-10T18:46:19.572Z,95.70
2019-06-10T18:48:48.508Z,95.80
2019-06-10T18:51:16.931Z,95.90
2019-06-10T18:53:45.363Z,95.50
2019-06-10T18:56:13.977Z,95.60
2019-06-10T18:58:42.712Z,96.00
2019-06-10T19:01:12.378Z,96.40
2019-06-10T19:03:43.030Z,96.40
2019-06-10T19:06:12.596Z,96.50
2019-06-10T19:08:44.268Z,96.80
2019-06-10T19:11:11.615Z,96.50
2019-06-10T19:13:41.012Z,96.80
2019-06-10T19:16:12.733Z,96.90
2019-06-10T19:18:42.973Z,97.30
2019-06-10T19:21:12.929Z,97.30
2019-06-10T19:23:43.534Z,97.40
2019-06-10T19:26:13.246Z,97.50
2019-06-10T19:28:44.770Z,97.60
2019-06-10T19:31:11.418Z,97.80
2019-06-10T19:33:41.312Z,98.00
2019-06-10T19:36:09.989Z,99.40
2019-06-10T19:38:38.750Z,99.90
2019-06-10T19:41:08.367Z,99.90
2019-06-10T19:43:39.110Z,99.90
2019-06-10T19:46:07.705Z,99.90
2019-06-10T19:48:40.189Z,99.90
2019-06-10T19:51:06.495Z,99.90
2019-06-10T19:53:36.034Z,99.90
2019-06-10T19:56:05.215Z,99.90
2019-06-10T19:58:34.168Z,99.90
2019-06-10T20:01:02.723Z,99.90
2019-06-10T20:03:33.858Z,99.90
2019-06-10T20:06:03.071Z,99.90
2019-06-10T20:08:33.054Z,99.90
2019-06-10T20:11:03.399Z,99.90
2019-06-10T20:13:32.469Z,99.90
2019-06-10T20:16:03.027Z,99.90
2019-06-10T20:18:33.202Z,99.90
2019-06-10T20:21:02.781Z,99.90
2019-06-10T20:23:33.312Z,99.90
2019-06-10T20:26:01.644Z,99.90
2019-06-10T20:28:32.153Z,99.90
2019-06-10T20:31:00.279Z,99.90
2019-06-10T20:33:33.839Z,99.90
2019-06-10T20:36:06.351Z,99.90
2019-06-10T20:38:32.582Z,99.90
2019-06-10T20:41:02.675Z,99.90
2019-06-10T20:43:32.843Z,99.90
2019-06-10T20:46:02.948Z,99.90
2019-06-10T20:48:33.229Z,99.90
2019-06-10T20:51:02.979Z,99.90
2019-06-10T20:53:33.834Z,99.90
2019-06-10T20:56:03.850Z,99.90
2019-06-10T20:58:33.150Z,99.90
2019-06-10T21:01:04.004Z,99.90
2019-06-10T21:03:32.453Z,99.90
2019-06-10T21:06:03.264Z,99.90
2019-06-10T21:08:33.372Z,99.90
2019-06-10T21:11:02.925Z,99.90
2019-06-10T21:13:33.021Z,99.90
2019-06-10T21:16:03.686Z,99.90
2019-06-10T21:18:32.906Z,99.90
2019-06-10T21:21:01.943Z,99.90
2019-06-10T21:23:30.438Z,99.90
2019-06-10T21:25:59.035Z,99.90
2019-06-10T21:28:27.579Z,99.90
2019-06-10T21:30:58.907Z,99.90
2019-06-10T21:33:26.206Z,99.90
2019-06-10T21:35:55.009Z,99.90
2019-06-10T21:38:23.511Z,99.90
2019-06-10T21:40:53.895Z,99.90
2019-06-10T21:43:22.446Z,99.90
2019-06-10T21:45:56.199Z,99.90
2019-06-10T21:48:23.052Z,99.90
2019-06-10T21:50:54.598Z,99.90
2019-06-10T21:53:22.302Z,99.90
2019-06-10T21:55:53.498Z,99.90
2019-06-10T21:58:22.580Z,99.90
2019-06-10T22:01:00.949Z,99.90
2019-06-10T22:03:23.588Z,99.90
2019-06-10T22:05:52.043Z,99.90
2019-06-10T22:08:20.534Z,99.90
2019-06-10T22:10:50.033Z,99.90
2019-06-10T22:13:18.919Z,99.90
2019-06-10T22:15:48.364Z,99.90
2019-06-10T22:18:17.145Z,99.90
2019-06-10T22:20:46.779Z,99.90
2019-06-10T22:23:15.363Z,99.90
2019-06-10T22:25:44.828Z,99.90
2019-06-10T22:28:13.412Z,99.90
2019-06-10T22:30:43.273Z,99.90
2019-06-10T22:33:12.483Z,99.90
2019-06-10T22:35:42.492Z,99.90
2019-06-10T22:38:13.088Z,99.90
2019-06-10T22:40:42.655Z,99.90
2019-06-10T22:43:13.013Z,99.90
2019-06-10T22:45:42.352Z,99.90
2019-06-10T22:48:12.151Z,99.90
2019-06-10T22:50:43.668Z,99.90
2019-06-10T22:53:12.617Z,99.90
2019-06-10T22:55:43.273Z,99.90
2019-06-10T22:58:14.222Z,99.90
2019-06-10T23:00:43.728Z,99.90
2019-06-10T23:03:13.086Z,99.90
2019-06-10T23:05:43.289Z,99.90
2019-06-10T23:08:15.002Z,99.90
2019-06-10T23:10:43.415Z,99.90
2019-06-10T23:13:13.380Z,99.90
2019-06-10T23:15:42.988Z,99.90
2019-06-10T23:18:12.777Z,99.90
2019-06-10T23:20:42.730Z,99.90
2019-06-10T23:23:12.783Z,99.90
2019-06-10T23:25:43.210Z,99.90
2019-06-10T23:28:13.086Z,99.90
2019-06-10T23:30:42.750Z,99.90
2019-06-10T23:33:12.502Z,99.90
2019-06-10T23:35:43.067Z,99.90
2019-06-10T23:38:13.255Z,99.90
2019-06-10T23:40:42.975Z,99.90
2019-06-10T23:43:13.255Z,99.90
2019-06-10T23:45:42.305Z,99.90
2019-06-10T23:48:13.115Z,99.90
2019-06-10T23:50:43.485Z,99.90
2019-06-10T23:53:13.121Z,99.90
2019-06-10T23:55:42.791Z,99.90
2019-06-10T23:58:12.885Z,99.90
